createdAt,value
2018-04-27T00:01:33.271Z,57.83
2018-04-27T00:03:59.526Z,57.34
2018-04-27T00:06:25.746Z,57.16
2018-04-27T00:08:51.971Z,57.28
2018-04-27T00:11:18.227Z,57.63
2018-04-27T00:13:44.471Z,57.43
2018-04-27T00:16:10.695Z,57.35
2018-04-27T00:18:36.974Z,58.57
2018-04-27T00:21:03.207Z,58.73
2018-04-27T00:23:29.426Z,59.13
2018-04-27T00:25:55.710Z,58.82
2018-04-27T00:28:21.939Z,59.00
2018-04-27T00:30:48.158Z,59.23
2018-04-27T00:33:14.447Z,59.03
2018-04-27T00:35:40.663Z,59.41
2018-04-27T00:38:06.927Z,59.51
2018-04-27T00:40:33.179Z,59.80
2018-04-27T00:42:59.403Z,60.03
2018-04-27T00:45:25.630Z,60.25
2018-04-27T00:47:51.884Z,60.71
2018-04-27T00:50:18.102Z,60.26
2018-04-27T00:52:56.690Z,59.54
2018-04-27T00:55:22.916Z,59.51
2018-04-27T00:57:49.238Z,59.87
2018-04-27T01:00:15.519Z,60.10
2018-04-27T01:02:41.746Z,59.17
2018-04-27T01:05:07.974Z,58.34
2018-04-27T01:07:34.227Z,58.30
2018-04-27T01:10:00.450Z,58.40
2018-04-27T01:12:26.666Z,58.63
2018-04-27T01:14:52.969Z,58.38
2018-04-27T01:17:19.191Z,58.02
2018-04-27T01:19:45.414Z,57.68
2018-04-27T01:22:11.666Z,57.94
2018-04-27T01:24:37.896Z,58.34
2018-04-27T01:27:04.158Z,58.18
2018-04-27T01:29:30.416Z,57.95
2018-04-27T01:31:56.652Z,57.92
2018-04-27T01:34:22.871Z,57.72
2018-04-27T01:36:49.124Z,57.33
2018-04-27T01:39:15.343Z,57.53
2018-04-27T01:41:41.627Z,57.37
2018-04-27T01:44:07.903Z,58.15
2018-04-27T01:46:34.130Z,58.84
2018-04-27T01:49:00.346Z,58.40
2018-04-27T01:51:26.611Z,58.97
2018-04-27T01:53:52.838Z,58.97
2018-04-27T01:56:19.062Z,58.71
2018-04-27T01:58:45.312Z,58.75
2018-04-27T02:01:11.532Z,59.08
2018-04-27T02:03:37.759Z,59.25
2018-04-27T02:06:04.070Z,59.42
2018-04-27T02:08:30.287Z,59.33
2018-04-27T02:10:56.546Z,59.48
2018-04-27T02:13:22.798Z,60.03
2018-04-27T02:15:49.022Z,60.29
2018-04-27T02:18:15.250Z,60.01
2018-04-27T02:20:41.515Z,58.01
2018-04-27T02:23:07.754Z,58.51
2018-04-27T02:25:33.979Z,59.74
2018-04-27T02:28:00.258Z,59.62
2018-04-27T02:30:26.499Z,59.70
2018-04-27T02:32:52.719Z,59.59
2018-04-27T02:35:18.975Z,58.85
2018-04-27T02:37:45.199Z,59.44
2018-04-27T02:40:11.455Z,59.38
2018-04-27T02:42:37.714Z,59.45
2018-04-27T02:45:03.955Z,59.50
2018-04-27T02:47:30.174Z,59.40
2018-04-27T02:49:56.435Z,59.61
2018-04-27T02:52:22.663Z,59.48
2018-04-27T02:54:48.906Z,59.82
2018-04-27T02:57:15.157Z,60.03
2018-04-27T02:59:41.378Z,59.87
2018-04-27T03:02:07.599Z,59.97
2018-04-27T03:04:33.847Z,60.44
2018-04-27T03:07:00.067Z,60.21
2018-04-27T03:09:26.294Z,60.02
2018-04-27T03:11:52.546Z,60.08
2018-04-27T03:14:18.766Z,60.44
2018-04-27T03:16:44.995Z,60.34
2018-04-27T03:19:11.270Z,60.20
2018-04-27T03:21:37.491Z,60.59
2018-04-27T03:24:03.734Z,60.21
2018-04-27T03:26:29.988Z,60.18
2018-04-27T03:28:56.207Z,60.51
2018-04-27T03:31:22.442Z,60.71
2018-04-27T03:33:48.690Z,60.12
2018-04-27T03:36:14.914Z,60.57
2018-04-27T03:38:41.138Z,60.42
2018-04-27T03:41:07.399Z,60.22
2018-04-27T03:43:33.619Z,60.18
2018-04-27T03:45:59.859Z,60.34
2018-04-27T03:48:26.109Z,60.39
2018-04-27T03:50:52.339Z,60.43
2018-04-27T03:53:18.592Z,60.55
2018-04-27T03:55:44.847Z,60.45
2018-04-27T03:58:11.071Z,60.32
2018-04-27T04:00:49.782Z,60.06
2018-04-27T04:03:28.263Z,60.51
2018-04-27T04:05:54.519Z,60.07
2018-04-27T04:08:20.754Z,60.12
2018-04-27T04:10:46.966Z,60.18
2018-04-27T04:13:13.214Z,60.36
2018-04-27T04:15:39.475Z,60.27
2018-04-27T04:18:05.766Z,60.57
2018-04-27T04:20:32.023Z,60.22
2018-04-27T04:22:58.251Z,60.16
2018-04-27T04:25:24.567Z,59.47
2018-04-27T04:27:50.890Z,58.21
2018-04-27T04:30:17.124Z,59.16
2018-04-27T04:32:43.364Z,59.38
2018-04-27T04:35:09.651Z,58.45
2018-04-27T04:37:35.879Z,58.70
2018-04-27T04:40:02.187Z,58.27
2018-04-27T04:42:28.386Z,57.99
2018-04-27T04:44:54.607Z,57.31
2018-04-27T04:47:20.857Z,56.85
2018-04-27T04:49:47.148Z,56.07
2018-04-27T04:52:13.384Z,55.37
2018-04-27T04:54:39.643Z,56.09
2018-04-27T04:57:05.895Z,56.24
2018-04-27T04:59:32.123Z,56.51
2018-04-27T05:01:58.346Z,56.74
2018-04-27T05:04:24.615Z,57.14
2018-04-27T05:06:50.847Z,56.69
2018-04-27T05:09:17.058Z,56.88
2018-04-27T05:11:43.319Z,56.47
2018-04-27T05:14:09.539Z,56.46
2018-04-27T05:16:35.799Z,56.62
2018-04-27T05:19:02.103Z,55.50
2018-04-27T05:21:28.335Z,54.57
2018-04-27T05:23:54.555Z,54.15
2018-04-27T05:26:20.849Z,53.76
2018-04-27T05:28:47.091Z,53.78
2018-04-27T05:31:23.610Z,53.56
2018-04-27T05:33:49.888Z,53.27
2018-04-27T05:36:16.154Z,52.67
2018-04-27T05:38:42.463Z,52.75
2018-04-27T05:41:08.751Z,52.74
2018-04-27T05:43:35.095Z,53.25
2018-04-27T05:46:01.435Z,52.40
2018-04-27T05:48:27.713Z,51.51
2018-04-27T05:50:53.990Z,51.37
2018-04-27T05:53:20.299Z,50.85
2018-04-27T05:55:46.572Z,51.82
2018-04-27T05:58:12.859Z,51.22
2018-04-27T06:00:39.171Z,50.81
2018-04-27T06:03:05.444Z,50.09
2018-04-27T06:05:31.694Z,49.72
2018-04-27T06:07:57.959Z,49.61
2018-04-27T06:10:24.234Z,49.66
2018-04-27T06:12:51.287Z,48.60
2018-04-27T06:15:17.583Z,47.93
2018-04-27T06:17:43.834Z,47.87
2018-04-27T06:20:10.062Z,47.70
2018-04-27T06:22:36.351Z,47.04
2018-04-27T06:25:02.621Z,45.89
2018-04-27T06:27:28.886Z,44.19
2018-04-27T06:29:55.185Z,44.94
2018-04-27T06:32:21.431Z,45.92
2018-04-27T06:34:47.666Z,45.56
2018-04-27T06:37:13.951Z,44.28
2018-04-27T06:39:40.203Z,44.48
2018-04-27T06:42:06.479Z,44.23
2018-04-27T06:44:32.775Z,43.52
2018-04-27T06:46:59.047Z,40.12
2018-04-27T06:49:25.327Z,40.81
2018-04-27T06:51:51.631Z,41.13
2018-04-27T06:54:17.887Z,42.79
2018-04-27T06:56:44.163Z,39.99
2018-04-27T06:59:10.470Z,42.03
2018-04-27T07:01:36.763Z,42.04
2018-04-27T07:04:03.035Z,40.89
2018-04-27T07:06:29.347Z,39.63
2018-04-27T07:08:55.620Z,38.69
2018-04-27T07:11:21.890Z,39.63
2018-04-27T07:13:48.219Z,38.27
2018-04-27T07:16:14.439Z,38.23
2018-04-27T07:18:40.663Z,37.18
2018-04-27T07:21:06.930Z,37.42
2018-04-27T07:23:33.208Z,36.52
2018-04-27T07:25:59.517Z,36.96
2018-04-27T07:28:25.730Z,36.50
2018-04-27T07:30:51.975Z,35.59
2018-04-27T07:33:18.224Z,36.17
2018-04-27T07:35:44.490Z,36.52
2018-04-27T07:38:10.760Z,36.02
2018-04-27T07:40:36.990Z,36.55
2018-04-27T07:43:03.291Z,35.80
2018-04-27T07:45:29.579Z,35.90
2018-04-27T07:47:55.850Z,37.17
2018-04-27T07:50:22.180Z,37.62
2018-04-27T07:52:48.422Z,37.30
2018-04-27T07:55:14.789Z,37.20
2018-04-27T07:57:41.055Z,37.31
2018-04-27T08:00:07.375Z,37.41
2018-04-27T08:02:33.654Z,37.46
2018-04-27T08:05:00.005Z,36.31
2018-04-27T08:07:26.278Z,37.12
2018-04-27T08:09:52.559Z,37.26
2018-04-27T08:12:18.859Z,36.65
2018-04-27T08:14:45.162Z,34.76
2018-04-27T08:17:11.435Z,34.61
2018-04-27T08:19:37.744Z,33.61
2018-04-27T08:22:04.011Z,34.24
2018-04-27T08:24:30.306Z,33.54
2018-04-27T08:26:56.610Z,33.34
2018-04-27T08:29:22.882Z,33.10
2018-04-27T08:31:49.149Z,32.45
2018-04-27T08:34:15.459Z,30.81
2018-04-27T08:36:41.714Z,29.98
2018-04-27T08:39:07.950Z,27.58
2018-04-27T08:41:34.223Z,27.40
2018-04-27T08:44:00.482Z,27.27
2018-04-27T08:46:28.695Z,25.52
2018-04-27T08:48:55.020Z,24.66
2018-04-27T08:51:21.303Z,24.64
2018-04-27T08:53:47.608Z,23.49
2018-04-27T08:56:13.915Z,23.71
2018-04-27T08:58:40.190Z,24.30
2018-04-27T09:01:06.454Z,23.36
2018-04-27T09:03:32.747Z,22.95
2018-04-27T09:05:59.023Z,21.99
2018-04-27T09:08:25.287Z,22.14
2018-04-27T09:10:51.632Z,21.42
2018-04-27T09:13:17.915Z,21.92
2018-04-27T09:15:44.147Z,23.06
2018-04-27T09:18:10.431Z,20.83
2018-04-27T09:20:36.662Z,21.48
2018-04-27T09:23:02.912Z,19.88
2018-04-27T09:25:29.213Z,20.49
2018-04-27T09:27:55.487Z,22.56
2018-04-27T09:30:21.768Z,23.02
2018-04-27T09:32:48.063Z,26.01
2018-04-27T09:35:14.337Z,26.98
2018-04-27T09:37:40.588Z,26.65
2018-04-27T09:40:06.887Z,27.15
2018-04-27T09:42:33.171Z,27.78
2018-04-27T09:44:59.431Z,28.81
2018-04-27T09:47:25.723Z,27.76
2018-04-27T09:49:51.999Z,27.53
2018-04-27T09:52:18.271Z,27.41
2018-04-27T09:54:44.536Z,27.56
2018-04-27T09:57:10.795Z,28.00
2018-04-27T09:59:37.154Z,29.94
2018-04-27T10:02:03.460Z,27.38
2018-04-27T10:04:29.736Z,27.15
2018-04-27T10:06:56.015Z,26.88
2018-04-27T10:09:22.315Z,24.63
2018-04-27T10:11:48.619Z,25.05
2018-04-27T10:14:14.922Z,24.14
2018-04-27T10:16:41.242Z,23.39
2018-04-27T10:19:07.487Z,23.92
2018-04-27T10:21:33.731Z,26.15
2018-04-27T10:24:00.030Z,26.45
2018-04-27T10:26:26.307Z,26.72
2018-04-27T10:28:52.555Z,24.16
2018-04-27T10:31:18.859Z,23.84
2018-04-27T10:33:45.119Z,22.47
2018-04-27T10:36:11.399Z,20.62
2018-04-27T10:38:37.714Z,20.30
2018-04-27T10:41:03.987Z,19.11
2018-04-27T10:43:30.250Z,18.41
2018-04-27T10:45:56.571Z,18.52
2018-04-27T10:48:22.844Z,19.23
2018-04-27T10:50:49.147Z,19.67
2018-04-27T10:53:15.454Z,18.32
2018-04-27T10:55:41.763Z,19.17
2018-04-27T10:58:08.040Z,18.89
2018-04-27T11:00:34.358Z,19.69
2018-04-27T11:03:00.654Z,19.43
2018-04-27T11:05:26.939Z,17.35
2018-04-27T11:07:53.307Z,17.10
2018-04-27T11:10:19.600Z,16.82
2018-04-27T11:12:45.870Z,16.30
2018-04-27T11:15:12.191Z,16.37
2018-04-27T11:17:38.487Z,16.03
2018-04-27T11:20:04.758Z,15.45
2018-04-27T11:22:31.063Z,15.22
2018-04-27T11:24:57.339Z,14.54
2018-04-27T11:27:23.611Z,14.86
2018-04-27T11:29:49.874Z,14.73
2018-04-27T11:32:16.099Z,14.97
2018-04-27T11:34:42.359Z,14.63
2018-04-27T11:37:08.671Z,15.27
2018-04-27T11:39:34.924Z,14.76
2018-04-27T11:42:01.151Z,14.51
2018-04-27T11:44:27.414Z,14.94
2018-04-27T11:46:53.683Z,14.78
2018-04-27T11:49:20.013Z,14.98
2018-04-27T11:51:46.324Z,14.23
2018-04-27T11:54:12.590Z,14.98
2018-04-27T11:56:38.821Z,14.71
2018-04-27T11:59:05.127Z,13.68
2018-04-27T12:01:31.434Z,13.47
2018-04-27T12:03:57.750Z,13.36
2018-04-27T12:06:24.087Z,13.12
2018-04-27T12:08:50.411Z,12.76
2018-04-27T12:11:16.723Z,13.20
2018-04-27T12:13:43.036Z,12.73
2018-04-27T12:16:09.359Z,13.14
2018-04-27T12:18:35.639Z,12.08
2018-04-27T12:21:01.911Z,12.66
2018-04-27T12:23:28.171Z,13.31
2018-04-27T12:25:54.461Z,12.49
2018-04-27T12:28:20.747Z,13.03
2018-04-27T12:30:47.003Z,12.45
2018-04-27T12:33:13.229Z,12.47
2018-04-27T12:35:39.489Z,13.05
2018-04-27T12:38:05.766Z,12.56
2018-04-27T12:40:32.038Z,12.23
2018-04-27T12:42:58.367Z,12.43
2018-04-27T12:45:24.641Z,12.12
2018-04-27T12:47:50.918Z,11.51
2018-04-27T12:50:17.230Z,12.12
2018-04-27T12:52:43.539Z,12.28
2018-04-27T12:55:09.822Z,11.92
2018-04-27T12:57:36.175Z,11.70
2018-04-27T13:00:02.443Z,11.97
2018-04-27T13:02:28.695Z,11.65
2018-04-27T13:04:54.962Z,10.96
2018-04-27T13:07:21.261Z,10.66
2018-04-27T13:09:47.538Z,11.66
2018-04-27T13:12:13.866Z,12.54
2018-04-27T13:14:40.158Z,12.53
2018-04-27T13:17:06.447Z,11.75
2018-04-27T13:19:32.873Z,12.56
2018-04-27T13:21:59.108Z,12.36
2018-04-27T13:24:25.347Z,11.89
2018-04-27T13:26:51.648Z,11.72
2018-04-27T13:29:17.923Z,11.45
2018-04-27T13:31:44.167Z,11.85
2018-04-27T13:34:10.433Z,11.90
2018-04-27T13:36:36.703Z,11.25
2018-04-27T13:39:03.020Z,11.06
2018-04-27T13:41:29.315Z,11.55
2018-04-27T13:43:55.570Z,11.31
2018-04-27T13:46:21.867Z,11.46
2018-04-27T13:48:48.155Z,10.77
2018-04-27T13:51:14.428Z,11.15
2018-04-27T13:53:40.741Z,11.32
2018-04-27T13:56:07.064Z,11.71
2018-04-27T13:58:33.347Z,12.26
2018-04-27T14:00:59.718Z,12.34
2018-04-27T14:03:26.062Z,11.67
2018-04-27T14:05:52.359Z,11.42
2018-04-27T14:08:18.651Z,11.49
2018-04-27T14:10:44.978Z,10.38
2018-04-27T14:13:11.268Z,10.89
2018-04-27T14:15:37.548Z,11.15
2018-04-27T14:18:03.881Z,10.44
2018-04-27T14:20:30.167Z,10.82
2018-04-27T14:22:56.410Z,10.88
2018-04-27T14:25:22.711Z,10.92
2018-04-27T14:27:48.982Z,11.06
2018-04-27T14:30:15.258Z,11.62
2018-04-27T14:32:41.539Z,12.13
2018-04-27T14:35:07.771Z,12.33
2018-04-27T14:37:34.018Z,11.59
2018-04-27T14:40:00.278Z,10.89
2018-04-27T14:42:26.532Z,11.44
2018-04-27T14:44:52.779Z,11.30
2018-04-27T14:47:19.071Z,11.41
2018-04-27T14:49:45.311Z,11.76
2018-04-27T14:52:11.555Z,11.51
2018-04-27T14:54:37.867Z,11.70
2018-04-27T14:57:04.143Z,11.78
2018-04-27T14:59:30.480Z,11.77
2018-04-27T15:01:56.990Z,12.02
2018-04-27T15:04:23.238Z,12.85
2018-04-27T15:06:49.506Z,12.62
2018-04-27T15:09:15.816Z,12.92
2018-04-27T15:11:42.082Z,12.86
2018-04-27T15:14:08.383Z,12.86
2018-04-27T15:16:34.747Z,13.08
2018-04-27T15:19:01.015Z,13.57
2018-04-27T15:21:27.256Z,13.66
2018-04-27T15:23:53.566Z,14.23
2018-04-27T15:26:19.850Z,14.26
2018-04-27T15:28:46.166Z,14.27
2018-04-27T15:31:12.447Z,15.29
2018-04-27T15:33:38.686Z,16.36
2018-04-27T15:36:04.995Z,17.28
2018-04-27T15:38:31.311Z,18.26
2018-04-27T15:40:57.635Z,18.58
2018-04-27T15:43:23.923Z,18.92
2018-04-27T15:45:50.255Z,19.58
2018-04-27T15:48:16.536Z,19.75
2018-04-27T16:03:34.587Z,22.01
2018-04-27T16:06:00.891Z,22.60
2018-04-27T16:08:27.178Z,22.56
2018-04-27T16:10:53.483Z,23.18
2018-04-27T16:13:25.559Z,23.01
2018-04-27T16:15:51.835Z,22.88
2018-04-27T16:18:18.148Z,22.98
2018-04-27T16:20:44.435Z,23.44
2018-04-27T16:23:10.702Z,23.73
2018-04-27T16:25:37.010Z,23.60
2018-04-27T16:28:03.325Z,23.87
2018-04-27T16:30:29.592Z,23.90
2018-04-27T16:32:55.901Z,24.41
2018-04-27T16:35:22.184Z,24.40
2018-04-27T16:37:48.459Z,24.57
2018-04-27T16:40:14.800Z,25.00
2018-04-27T16:42:41.060Z,24.92
2018-04-27T16:45:07.352Z,24.97
2018-04-27T16:47:33.865Z,25.22
2018-04-27T16:50:00.346Z,25.29
2018-04-27T16:52:26.854Z,25.05
2018-04-27T16:54:53.215Z,25.57
2018-04-27T16:57:19.817Z,25.09
2018-04-27T16:59:46.564Z,25.44
2018-04-27T17:02:12.937Z,25.99
2018-04-27T17:04:39.616Z,25.88
2018-04-27T17:07:05.913Z,25.83
2018-04-27T17:09:32.590Z,26.37
2018-04-27T17:11:58.929Z,26.86
2018-04-27T17:14:25.268Z,27.14
2018-04-27T17:16:51.611Z,26.98
2018-04-27T17:19:17.977Z,27.14
2018-04-27T17:21:44.227Z,27.20
2018-04-27T17:24:10.567Z,27.74
2018-04-27T17:26:36.868Z,27.95
2018-04-27T17:29:03.176Z,27.53
2018-04-27T17:31:29.507Z,27.76
2018-04-27T17:33:55.814Z,28.47
2018-04-27T17:36:22.118Z,28.91
2018-04-27T17:38:48.450Z,28.71
2018-04-27T17:41:14.767Z,29.01
2018-04-27T17:43:41.107Z,29.09
2018-04-27T17:46:07.529Z,29.19
2018-04-27T17:48:33.867Z,29.46
2018-04-27T17:51:00.139Z,29.75
2018-04-27T17:53:26.787Z,30.25
2018-04-27T17:55:53.260Z,30.42
2018-04-27T17:58:19.620Z,30.59
2018-04-27T18:00:45.998Z,30.72
2018-04-27T18:03:12.497Z,30.94
2018-04-27T18:05:38.942Z,30.79
2018-04-27T18:08:05.668Z,30.97
2018-04-27T18:10:32.002Z,30.87
2018-04-27T18:12:58.473Z,30.89
2018-04-27T18:15:24.859Z,30.92
2018-04-27T18:17:51.251Z,31.22
2018-04-27T18:20:18.059Z,31.37
2018-04-27T18:22:44.443Z,31.87
2018-04-27T18:25:10.725Z,31.85
2018-04-27T18:27:37.035Z,32.26
2018-04-27T18:30:03.426Z,32.53
2018-04-27T18:32:29.699Z,32.04
2018-04-27T18:34:56.033Z,31.88
2018-04-27T18:37:22.439Z,32.18
2018-04-27T18:39:50.360Z,32.11
2018-04-27T18:42:16.697Z,32.30
2018-04-27T18:44:43.128Z,32.63
2018-04-27T18:47:09.641Z,32.76
2018-04-27T18:49:35.996Z,32.87
2018-04-27T18:52:02.350Z,32.87
2018-04-27T18:54:28.707Z,33.36
2018-04-27T18:56:55.217Z,33.46
2018-04-27T18:59:22.549Z,33.56
2018-04-27T19:01:48.941Z,33.84
2018-04-27T19:04:15.414Z,33.90
2018-04-27T19:06:41.921Z,34.38
2018-04-27T19:09:08.228Z,35.29
2018-04-27T19:11:34.733Z,35.15
2018-04-27T19:14:01.111Z,35.61
2018-04-27T19:16:27.540Z,35.78
2018-04-27T19:18:55.701Z,35.92
2018-04-27T19:21:22.036Z,36.55
2018-04-27T19:23:48.388Z,36.73
2018-04-27T19:26:14.826Z,37.00
2018-04-27T19:28:41.163Z,37.76
2018-04-27T19:31:07.482Z,37.75
2018-04-27T19:33:33.759Z,38.45
2018-04-27T19:36:00.189Z,39.08
2018-04-27T19:38:26.501Z,39.45
2018-04-27T19:40:52.811Z,39.67
2018-04-27T19:43:19.258Z,39.98
2018-04-27T19:45:45.559Z,40.46
2018-04-27T19:48:11.962Z,40.87
2018-04-27T19:50:38.307Z,40.61
2018-04-27T19:53:04.643Z,40.51
2018-04-27T19:55:30.947Z,40.61
2018-04-27T19:57:57.268Z,40.09
2018-04-27T20:00:25.528Z,40.06
2018-04-27T20:02:51.879Z,40.14
2018-04-27T20:05:18.219Z,39.96
2018-04-27T20:07:44.507Z,39.89
2018-04-27T20:10:15.587Z,39.78
2018-04-27T20:12:41.899Z,40.55
2018-04-27T20:15:08.254Z,40.48
2018-04-27T20:17:36.472Z,40.43
2018-04-27T20:20:17.682Z,40.34
2018-04-27T20:22:48.089Z,41.45
2018-04-27T20:25:14.371Z,41.39
2018-04-27T20:27:40.890Z,42.13
2018-04-27T20:30:07.174Z,42.29
2018-04-27T20:32:33.469Z,42.30
2018-04-27T20:35:00.126Z,42.75
2018-04-27T20:37:26.758Z,42.57
2018-04-27T20:39:53.299Z,43.18
2018-04-27T20:42:20.751Z,43.33
2018-04-27T20:44:47.078Z,44.01
2018-04-27T20:47:13.643Z,44.32
2018-04-27T20:49:40.774Z,44.45
2018-04-27T20:52:07.521Z,44.42
2018-04-27T20:54:34.197Z,44.70
2018-04-27T20:57:00.835Z,44.75
2018-04-27T20:59:27.151Z,44.22
2018-04-27T21:01:53.959Z,44.29
2018-04-27T21:04:20.885Z,45.36
2018-04-27T21:06:47.624Z,45.15
2018-04-27T21:09:15.294Z,45.31
2018-04-27T21:11:41.690Z,45.39
2018-04-27T21:14:08.286Z,44.95
2018-04-27T21:16:34.737Z,45.55
2018-04-27T21:19:01.051Z,45.69
2018-04-27T21:21:27.537Z,45.99
2018-04-27T21:23:53.838Z,45.21
2018-04-27T21:26:22.976Z,45.04
2018-04-27T21:28:49.245Z,45.30
2018-04-27T21:31:19.059Z,45.42
2018-04-27T21:33:55.468Z,45.10
2018-04-27T21:36:40.756Z,45.01
2018-04-27T21:39:16.558Z,45.66
2018-04-27T21:41:57.045Z,45.04
2018-04-27T21:44:37.043Z,44.90
2018-04-27T21:47:08.202Z,45.40
2018-04-27T21:49:39.743Z,45.48
2018-04-27T21:52:14.855Z,45.56
2018-04-27T21:54:53.280Z,45.85
2018-04-27T22:11:31.637Z,47.28
2018-04-27T22:19:15.444Z,45.67
2018-04-27T22:21:53.037Z,46.65
2018-04-27T22:24:31.712Z,46.12
2018-04-27T22:27:29.915Z,46.17
2018-04-27T22:32:41.928Z,46.19
2018-04-27T22:38:34.959Z,47.07
2018-04-27T22:41:08.549Z,46.73
2018-04-27T22:43:44.350Z,46.38
2018-04-27T22:46:18.311Z,44.65
2018-04-27T22:48:50.416Z,44.98
2018-04-27T22:51:30.379Z,43.21
2018-04-27T22:54:00.317Z,43.25
2018-04-27T22:59:34.507Z,42.85
2018-04-27T23:02:02.935Z,42.07
2018-04-27T23:07:10.564Z,41.92
2018-04-27T23:09:42.005Z,41.95
2018-04-27T23:14:54.237Z,41.77
2018-04-27T23:17:20.534Z,41.50
2018-04-27T23:19:55.782Z,41.48
2018-04-27T23:22:37.516Z,41.31
2018-04-27T23:25:12.098Z,41.19
2018-04-27T23:27:43.151Z,41.05
2018-04-27T23:30:12.921Z,40.84
2018-04-27T23:32:41.536Z,40.67
2018-04-27T23:35:08.446Z,40.61
2018-04-27T23:40:14.171Z,40.31
2018-04-27T23:42:47.176Z,40.32
2018-04-27T23:45:26.842Z,40.11
2018-04-27T23:50:58.411Z,40.05
2018-04-27T23:56:19.512Z,39.78
